createdAt,value
2023-01-19T00:00:16.781Z,994.14
2023-01-19T00:01:16.843Z,994.22
2023-01-19T00:02:16.991Z,994.26
2023-01-19T00:03:17.168Z,994.23
2023-01-19T00:04:17.342Z,994.23
2023-01-19T00:05:17.521Z,994.19
2023-01-19T00:06:17.704Z,994.27
2023-01-19T00:07:17.769Z,994.22
2023-01-19T00:08:17.936Z,994.23
2023-01-19T00:09:18.074Z,994.30
2023-01-19T00:10:18.141Z,994.25
2023-01-19T00:11:18.309Z,994.25
2023-01-19T00:12:18.471Z,994.27
2023-01-19T00:13:18.634Z,994.28
2023-01-19T00:14:18.838Z,994.41
2023-01-19T00:15:18.921Z,994.34
2023-01-19T00:16:19.139Z,994.36
2023-01-19T00:17:19.188Z,994.32
2023-01-19T00:18:19.376Z,994.27
2023-01-19T00:19:19.520Z,994.30
2023-01-19T00:20:19.707Z,994.35
2023-01-19T00:21:19.861Z,994.23
2023-01-19T00:22:20.023Z,994.27
2023-01-19T00:23:20.163Z,994.28
2023-01-19T00:24:20.356Z,994.31
2023-01-19T00:25:20.542Z,994.29
2023-01-19T00:26:20.547Z,994.29
2023-01-19T00:27:20.705Z,994.32
2023-01-19T00:28:20.860Z,994.29
2023-01-19T00:29:21.045Z,994.30
2023-01-19T00:30:21.167Z,994.31
2023-01-19T00:31:21.284Z,994.39
2023-01-19T00:32:21.379Z,994.33
2023-01-19T00:33:21.548Z,994.36
2023-01-19T00:34:21.722Z,994.31
2023-01-19T00:35:21.863Z,994.32
2023-01-19T00:36:22.046Z,994.42
2023-01-19T00:37:22.202Z,994.37
2023-01-19T00:38:22.347Z,994.51
2023-01-19T00:39:22.456Z,994.43
2023-01-19T00:40:22.613Z,994.45
2023-01-19T00:41:22.683Z,994.36
2023-01-19T00:42:22.855Z,994.46
2023-01-19T00:43:22.947Z,994.54
2023-01-19T00:44:23.105Z,994.46
2023-01-19T00:45:23.338Z,994.36
2023-01-19T00:46:23.404Z,994.43
2023-01-19T00:47:23.585Z,994.53
2023-01-19T00:48:23.735Z,994.53
2023-01-19T00:49:23.844Z,994.53
2023-01-19T00:50:23.951Z,994.47
2023-01-19T00:51:24.106Z,994.46
2023-01-19T00:52:32.868Z,994.46
2023-01-19T00:53:24.404Z,994.49
2023-01-19T00:54:26.325Z,994.47
2023-01-19T00:55:24.662Z,994.54
2023-01-19T00:56:24.834Z,994.46
2023-01-19T00:57:24.988Z,994.58
2023-01-19T00:58:25.118Z,994.49
2023-01-19T00:59:25.235Z,994.49
2023-01-19T01:00:25.382Z,994.47
2023-01-19T01:01:45.968Z,994.44
2023-01-19T01:02:26.940Z,994.42
2023-01-19T01:03:25.864Z,994.51
2023-01-19T01:04:25.985Z,994.55
2023-01-19T01:05:26.154Z,994.50
2023-01-19T01:06:26.304Z,994.43
2023-01-19T01:07:26.426Z,994.40
2023-01-19T01:08:26.578Z,994.46
2023-01-19T01:09:26.694Z,994.50
2023-01-19T01:10:26.822Z,994.45
2023-01-19T01:11:26.939Z,994.46
2023-01-19T01:12:27.076Z,994.50
2023-01-19T01:13:27.999Z,994.42
2023-01-19T01:14:27.436Z,994.42
2023-01-19T01:15:27.578Z,994.45
2023-01-19T01:16:27.708Z,994.39
2023-01-19T01:17:27.731Z,994.47
2023-01-19T01:18:27.866Z,994.36
2023-01-19T01:19:27.988Z,994.36
2023-01-19T01:20:28.306Z,994.47
2023-01-19T01:21:28.298Z,994.47
2023-01-19T01:22:28.440Z,994.35
2023-01-19T01:23:28.560Z,994.38
2023-01-19T01:24:28.711Z,994.46
2023-01-19T01:25:28.858Z,994.53
2023-01-19T01:26:29.007Z,994.46
2023-01-19T01:27:29.132Z,994.50
2023-01-19T01:28:29.252Z,994.58
2023-01-19T01:29:29.402Z,994.56
2023-01-19T01:30:29.553Z,994.56
2023-01-19T01:31:29.727Z,994.53
2023-01-19T01:32:29.810Z,994.61
2023-01-19T01:33:40.607Z,994.53
2023-01-19T01:34:31.136Z,994.56
2023-01-19T01:35:30.250Z,994.56
2023-01-19T01:36:30.389Z,994.56
2023-01-19T01:37:30.542Z,994.55
2023-01-19T01:38:30.679Z,994.57
2023-01-19T01:39:30.810Z,994.60
2023-01-19T01:40:30.941Z,994.46
2023-01-19T01:41:32.078Z,994.61
2023-01-19T01:42:31.194Z,994.58
2023-01-19T01:43:31.337Z,994.43
2023-01-19T01:44:31.518Z,994.53
2023-01-19T01:45:31.658Z,994.47
2023-01-19T01:46:31.774Z,994.52
2023-01-19T01:47:31.940Z,994.42
2023-01-19T01:48:32.087Z,994.40
2023-01-19T01:49:32.242Z,994.50
2023-01-19T01:50:32.382Z,994.40
2023-01-19T01:51:32.527Z,994.40
2023-01-19T01:52:32.698Z,994.49
2023-01-19T01:53:32.858Z,994.41
2023-01-19T01:54:33.010Z,994.51
2023-01-19T01:55:33.138Z,994.39
2023-01-19T01:56:33.308Z,994.44
2023-01-19T01:57:33.470Z,994.41
2023-01-19T01:58:33.626Z,994.45
2023-01-19T01:59:33.768Z,994.43
2023-01-19T02:00:33.889Z,994.44
2023-01-19T02:01:34.285Z,994.38
2023-01-19T02:02:34.165Z,994.50
2023-01-19T02:03:34.338Z,994.48
2023-01-19T02:04:34.444Z,994.54
2023-01-19T02:05:34.574Z,994.51
2023-01-19T02:06:34.723Z,994.47
2023-01-19T02:07:34.845Z,994.47
2023-01-19T02:08:35.025Z,994.53
2023-01-19T02:09:35.095Z,994.39
2023-01-19T02:10:35.228Z,994.46
2023-01-19T02:11:35.372Z,994.43
2023-01-19T02:12:35.527Z,994.39
2023-01-19T02:13:35.675Z,994.50
2023-01-19T02:14:35.795Z,994.42
2023-01-19T02:15:35.866Z,994.41
2023-01-19T02:16:36.112Z,994.44
2023-01-19T02:17:36.211Z,994.34
2023-01-19T02:18:36.351Z,994.36
2023-01-19T02:19:36.479Z,994.43
2023-01-19T02:20:36.624Z,994.42
2023-01-19T02:21:36.826Z,994.42
2023-01-19T02:22:36.893Z,994.37
2023-01-19T02:23:36.986Z,994.46
2023-01-19T02:24:37.144Z,994.44
2023-01-19T02:25:37.287Z,994.40
2023-01-19T02:26:37.416Z,994.32
2023-01-19T02:27:37.575Z,994.38
2023-01-19T02:28:37.731Z,994.45
2023-01-19T02:29:37.871Z,994.44
2023-01-19T02:30:38.057Z,994.38
2023-01-19T02:31:38.167Z,994.29
2023-01-19T02:32:38.348Z,994.29
2023-01-19T02:33:38.468Z,994.33
2023-01-19T02:34:38.627Z,994.36
2023-01-19T02:35:38.786Z,994.30
2023-01-19T02:36:38.932Z,994.34
2023-01-19T02:37:39.085Z,994.34
2023-01-19T02:38:39.200Z,994.33
2023-01-19T02:39:39.354Z,994.37
2023-01-19T02:40:39.442Z,994.51
2023-01-19T02:41:39.593Z,994.25
2023-01-19T02:42:39.745Z,994.29
2023-01-19T02:43:39.913Z,994.31
2023-01-19T02:44:40.033Z,994.28
2023-01-19T02:45:40.440Z,994.24
2023-01-19T02:46:40.280Z,994.28
2023-01-19T02:47:40.412Z,994.28
2023-01-19T02:48:40.555Z,994.33
2023-01-19T02:49:40.702Z,994.30
2023-01-19T02:50:40.837Z,994.30
2023-01-19T02:51:40.980Z,994.27
2023-01-19T02:52:41.114Z,994.35
2023-01-19T02:53:41.260Z,994.29
2023-01-19T02:54:41.397Z,994.34
2023-01-19T02:55:41.590Z,994.26
2023-01-19T02:56:41.721Z,994.26
2023-01-19T02:57:41.873Z,994.29
2023-01-19T02:58:42.007Z,994.28
2023-01-19T02:59:42.147Z,994.20
2023-01-19T03:00:42.339Z,994.24
2023-01-19T03:01:42.528Z,994.21
2023-01-19T03:02:42.641Z,994.20
2023-01-19T03:03:42.734Z,994.17
2023-01-19T03:04:42.849Z,994.20
2023-01-19T03:05:43.019Z,994.31
2023-01-19T03:06:43.149Z,994.22
2023-01-19T03:07:43.306Z,994.27
2023-01-19T03:08:43.458Z,994.19
2023-01-19T03:09:43.633Z,994.09
2023-01-19T03:10:43.768Z,994.12
2023-01-19T03:11:43.919Z,994.12
2023-01-19T03:12:44.065Z,994.12
2023-01-19T03:13:44.218Z,994.12
2023-01-19T03:14:44.348Z,994.10
2023-01-19T03:15:44.637Z,994.08
2023-01-19T03:16:44.707Z,994.06
2023-01-19T03:17:44.835Z,994.12
2023-01-19T03:18:44.953Z,994.11
2023-01-19T03:19:45.137Z,994.10
2023-01-19T03:20:45.296Z,994.11
2023-01-19T03:21:47.325Z,994.10
2023-01-19T03:22:45.625Z,994.17
2023-01-19T03:23:45.755Z,994.23
2023-01-19T03:24:45.913Z,994.19
2023-01-19T03:25:46.007Z,994.17
2023-01-19T03:26:46.154Z,994.20
2023-01-19T03:27:46.293Z,994.14
2023-01-19T03:28:46.414Z,994.12
2023-01-19T03:29:46.536Z,994.17
2023-01-19T03:30:46.796Z,994.14
2023-01-19T03:31:46.841Z,994.18
2023-01-19T03:32:47.009Z,994.29
2023-01-19T03:33:47.103Z,994.15
2023-01-19T03:34:47.235Z,994.17
2023-01-19T03:35:47.379Z,994.20
2023-01-19T03:36:47.555Z,994.15
2023-01-19T03:37:47.650Z,994.24
2023-01-19T03:38:47.789Z,994.11
2023-01-19T03:39:48.005Z,994.07
2023-01-19T03:40:48.093Z,994.11
2023-01-19T03:41:48.243Z,994.07
2023-01-19T03:42:48.424Z,994.05
2023-01-19T03:43:48.552Z,994.16
2023-01-19T03:44:48.696Z,994.19
2023-01-19T03:45:48.904Z,994.08
2023-01-19T03:46:49.012Z,994.17
2023-01-19T03:47:49.255Z,994.00
2023-01-19T03:48:49.295Z,994.03
2023-01-19T03:49:49.428Z,994.03
2023-01-19T03:50:49.580Z,994.01
2023-01-19T03:51:49.718Z,994.00
2023-01-19T03:52:49.861Z,994.08
2023-01-19T03:53:50.005Z,994.11
2023-01-19T03:54:50.149Z,994.01
2023-01-19T03:55:50.277Z,994.11
2023-01-19T03:56:50.413Z,994.04
2023-01-19T03:57:50.577Z,994.06
2023-01-19T03:58:50.736Z,994.09
2023-01-19T03:59:50.889Z,994.06
2023-01-19T04:00:51.049Z,993.99
2023-01-19T04:01:51.223Z,994.00
2023-01-19T04:02:51.328Z,994.00
2023-01-19T04:03:51.414Z,994.09
2023-01-19T04:04:51.606Z,994.15
2023-01-19T04:05:51.686Z,994.08
2023-01-19T04:06:51.821Z,994.11
2023-01-19T04:07:52.038Z,994.08
2023-01-19T04:08:52.117Z,994.09
2023-01-19T04:09:52.264Z,994.04
2023-01-19T04:10:52.412Z,994.05
2023-01-19T04:11:52.527Z,994.11
2023-01-19T04:12:52.658Z,994.08
2023-01-19T04:13:52.873Z,994.13
2023-01-19T04:14:52.940Z,994.03
2023-01-19T04:15:53.109Z,994.04
2023-01-19T04:16:53.167Z,994.11
2023-01-19T04:17:53.315Z,994.06
2023-01-19T04:18:53.470Z,994.09
2023-01-19T04:19:53.617Z,994.06
2023-01-19T04:20:53.754Z,994.09
2023-01-19T04:21:53.923Z,994.08
2023-01-19T04:22:54.075Z,994.12
2023-01-19T04:23:54.277Z,994.13
2023-01-19T04:24:54.468Z,994.10
2023-01-19T04:25:54.549Z,994.06
2023-01-19T04:26:54.684Z,994.12
2023-01-19T04:27:54.856Z,994.17
2023-01-19T04:28:54.973Z,994.09
2023-01-19T04:29:55.112Z,994.22
2023-01-19T04:30:55.337Z,994.13
2023-01-19T04:31:55.480Z,994.13
2023-01-19T04:32:55.553Z,994.12
2023-01-19T04:33:55.676Z,994.19
2023-01-19T04:34:55.865Z,994.11
2023-01-19T04:35:56.061Z,994.15
2023-01-19T04:36:56.183Z,994.15
2023-01-19T04:37:56.272Z,994.12
2023-01-19T04:38:56.480Z,994.10
2023-01-19T04:39:56.631Z,994.18
2023-01-19T04:40:56.781Z,994.16
2023-01-19T04:41:56.903Z,994.18
2023-01-19T04:42:57.021Z,994.10
2023-01-19T04:43:57.189Z,994.18
2023-01-19T04:44:57.336Z,994.16
2023-01-19T04:45:57.453Z,994.21
2023-01-19T04:46:57.576Z,994.16
2023-01-19T04:47:57.718Z,994.18
2023-01-19T04:48:57.863Z,994.15
2023-01-19T04:49:58.005Z,994.24
2023-01-19T04:50:58.088Z,994.16
2023-01-19T04:51:58.226Z,994.14
2023-01-19T04:52:58.746Z,994.22
2023-01-19T04:53:58.572Z,994.20
2023-01-19T04:54:58.709Z,994.24
2023-01-19T04:55:58.879Z,994.22
2023-01-19T04:56:59.031Z,994.22
2023-01-19T04:57:59.221Z,994.15
2023-01-19T04:59:00.117Z,994.14
2023-01-19T04:59:59.483Z,994.20
2023-01-19T05:00:59.671Z,994.25
2023-01-19T05:01:59.836Z,994.31
2023-01-19T05:03:00.461Z,994.22
2023-01-19T05:04:00.092Z,994.27
2023-01-19T05:05:00.212Z,994.21
2023-01-19T05:06:00.368Z,994.25
2023-01-19T05:07:00.515Z,994.19
2023-01-19T05:08:00.664Z,994.27
2023-01-19T05:09:00.794Z,994.25
2023-01-19T05:10:00.938Z,994.24
2023-01-19T05:11:01.046Z,994.26
2023-01-19T05:12:01.210Z,994.26
2023-01-19T05:13:01.742Z,994.30
2023-01-19T05:14:01.529Z,994.26
2023-01-19T05:15:01.709Z,994.23
2023-01-19T05:16:01.893Z,994.28
2023-01-19T05:17:01.959Z,994.29
2023-01-19T05:18:02.087Z,994.31
2023-01-19T05:19:02.237Z,994.32
2023-01-19T05:20:02.416Z,994.31
2023-01-19T05:21:02.492Z,994.27
2023-01-19T05:22:02.617Z,994.31
2023-01-19T05:23:03.280Z,994.35
2023-01-19T05:24:02.846Z,994.30
2023-01-19T05:25:02.999Z,994.33
2023-01-19T05:26:03.164Z,994.34
2023-01-19T05:27:03.327Z,994.38
2023-01-19T05:28:03.431Z,994.33
2023-01-19T05:29:03.585Z,994.34
2023-01-19T05:30:03.722Z,994.37
2023-01-19T05:31:03.998Z,994.38
2023-01-19T05:32:04.051Z,994.34
2023-01-19T05:33:04.103Z,994.33
2023-01-19T05:34:04.247Z,994.35
2023-01-19T05:35:04.357Z,994.47
2023-01-19T05:36:04.542Z,994.37
2023-01-19T05:37:04.689Z,994.39
2023-01-19T05:38:04.754Z,994.43
2023-01-19T05:39:04.904Z,994.42
2023-01-19T05:40:05.044Z,994.48
2023-01-19T05:41:05.245Z,994.46
2023-01-19T05:42:05.395Z,994.52
2023-01-19T05:43:05.684Z,994.49
2023-01-19T05:44:05.700Z,994.40
2023-01-19T05:45:05.844Z,994.40
2023-01-19T05:46:05.985Z,994.45
2023-01-19T05:47:06.144Z,994.40
2023-01-19T05:48:07.316Z,994.50
2023-01-19T05:49:06.391Z,994.43
2023-01-19T05:50:06.544Z,994.40
2023-01-19T05:51:06.669Z,994.55
2023-01-19T05:52:06.812Z,994.50
2023-01-19T05:53:07.010Z,994.49
2023-01-19T05:54:07.039Z,994.49
2023-01-19T05:55:07.140Z,994.48
2023-01-19T05:56:07.269Z,994.50
2023-01-19T05:57:07.409Z,994.47
2023-01-19T05:58:07.636Z,994.53
2023-01-19T05:59:07.709Z,994.41
2023-01-19T06:00:07.838Z,994.54
2023-01-19T06:01:07.977Z,994.49
2023-01-19T06:02:08.114Z,994.56
2023-01-19T06:03:08.269Z,994.55
2023-01-19T06:04:09.895Z,994.60
2023-01-19T06:05:08.601Z,994.60
2023-01-19T06:06:08.765Z,994.72
2023-01-19T06:07:08.888Z,994.67
2023-01-19T06:08:09.027Z,994.69
2023-01-19T06:09:09.187Z,994.74
2023-01-19T06:10:09.365Z,994.73
2023-01-19T06:11:09.508Z,994.74
2023-01-19T06:12:09.643Z,994.71
2023-01-19T06:13:09.785Z,994.77
2023-01-19T06:14:09.925Z,994.74
2023-01-19T06:15:10.078Z,994.74
2023-01-19T06:16:10.263Z,994.79
2023-01-19T06:17:10.398Z,994.72
2023-01-19T06:18:10.535Z,994.73
2023-01-19T06:19:10.706Z,994.76
2023-01-19T06:20:10.875Z,994.70
2023-01-19T06:21:10.968Z,994.79
2023-01-19T06:22:11.122Z,994.81
2023-01-19T06:23:11.246Z,994.76
2023-01-19T06:24:13.168Z,994.76
2023-01-19T06:25:11.534Z,994.75
2023-01-19T06:26:11.655Z,994.79
2023-01-19T06:27:11.774Z,994.85
2023-01-19T06:28:11.903Z,994.80
2023-01-19T06:29:12.022Z,994.87
2023-01-19T06:30:12.170Z,994.86
2023-01-19T06:31:12.310Z,994.79
2023-01-19T06:32:12.445Z,994.81
2023-01-19T06:33:12.583Z,994.89
2023-01-19T06:34:12.769Z,994.88
2023-01-19T06:35:12.842Z,994.93
2023-01-19T06:36:12.998Z,994.90
2023-01-19T06:37:13.112Z,994.93
2023-01-19T06:38:13.262Z,994.98
2023-01-19T06:39:13.401Z,994.95
2023-01-19T06:40:14.478Z,995.01
2023-01-19T06:41:13.692Z,994.95
2023-01-19T06:42:13.815Z,994.99
2023-01-19T06:43:13.944Z,995.03
2023-01-19T06:44:14.084Z,995.01
2023-01-19T06:45:14.236Z,995.03
2023-01-19T06:46:14.459Z,995.08
2023-01-19T06:47:15.937Z,995.12
2023-01-19T06:48:14.706Z,995.14
2023-01-19T06:49:14.836Z,995.09
2023-01-19T06:50:14.993Z,995.26
2023-01-19T06:51:16.032Z,995.17
2023-01-19T06:52:15.317Z,995.13
2023-01-19T06:53:23.034Z,995.26
2023-01-19T06:54:15.611Z,995.22
2023-01-19T06:55:16.315Z,995.22
2023-01-19T06:56:16.612Z,995.23
2023-01-19T06:57:16.037Z,995.22
2023-01-19T06:58:16.193Z,995.32
2023-01-19T06:59:16.357Z,995.28
2023-01-19T07:00:16.531Z,995.31
2023-01-19T07:01:16.786Z,995.29
2023-01-19T07:02:26.307Z,995.27
2023-01-19T07:03:18.059Z,995.33
2023-01-19T07:04:17.115Z,995.40
2023-01-19T07:05:17.255Z,995.42
2023-01-19T07:06:17.407Z,995.46
2023-01-19T07:07:17.526Z,995.51
2023-01-19T07:08:17.683Z,995.50
2023-01-19T07:09:17.806Z,995.51
2023-01-19T07:10:17.958Z,995.47
2023-01-19T07:11:22.362Z,995.53
2023-01-19T07:12:19.259Z,995.46
2023-01-19T07:13:18.377Z,995.50
2023-01-19T07:14:18.498Z,995.50
2023-01-19T07:15:18.670Z,995.50
2023-01-19T07:16:18.857Z,995.54
2023-01-19T07:17:18.983Z,995.50
2023-01-19T07:18:19.108Z,995.55
2023-01-19T07:19:19.280Z,995.61
2023-01-19T07:20:19.418Z,995.70
2023-01-19T07:21:19.553Z,995.69
2023-01-19T07:22:19.683Z,995.69
2023-01-19T07:23:19.791Z,995.70
2023-01-19T07:24:19.938Z,995.56
2023-01-19T07:25:20.099Z,995.71
2023-01-19T07:26:20.238Z,995.73
2023-01-19T07:27:21.089Z,995.65
2023-01-19T07:28:20.535Z,995.67
2023-01-19T07:29:20.662Z,995.73
2023-01-19T07:30:20.769Z,995.72
2023-01-19T07:31:21.070Z,995.79
2023-01-19T07:32:21.085Z,995.78
2023-01-19T07:33:21.255Z,995.84
2023-01-19T07:34:21.433Z,995.81
2023-01-19T07:35:21.608Z,995.80
2023-01-19T07:36:21.692Z,995.80
2023-01-19T07:37:21.856Z,995.80
2023-01-19T07:38:22.052Z,995.84
2023-01-19T07:39:22.154Z,995.85
2023-01-19T07:40:24.006Z,995.90
2023-01-19T07:41:22.347Z,995.83
2023-01-19T07:42:22.511Z,995.86
2023-01-19T07:43:22.688Z,995.87
2023-01-19T07:44:22.809Z,995.97
2023-01-19T07:45:22.888Z,995.91
2023-01-19T07:46:23.059Z,996.03
2023-01-19T07:47:23.168Z,996.03
2023-01-19T07:48:23.270Z,996.01
2023-01-19T07:49:23.466Z,995.96
2023-01-19T07:50:23.610Z,996.05
2023-01-19T07:51:23.714Z,996.05
2023-01-19T07:52:23.834Z,996.07
2023-01-19T07:53:24.006Z,996.04
2023-01-19T07:54:24.112Z,996.10
2023-01-19T07:55:24.253Z,996.17
2023-01-19T07:56:24.423Z,996.18
2023-01-19T07:57:24.573Z,996.23
2023-01-19T07:58:24.728Z,996.22
2023-01-19T07:59:24.932Z,996.25
2023-01-19T08:00:25.008Z,996.24
2023-01-19T08:01:25.289Z,996.21
2023-01-19T08:02:25.357Z,996.22
2023-01-19T08:03:25.453Z,996.27
2023-01-19T08:04:25.656Z,996.26
2023-01-19T08:05:25.771Z,996.25
2023-01-19T08:06:25.883Z,996.23
2023-01-19T08:07:26.029Z,996.27
2023-01-19T08:08:26.112Z,996.17
2023-01-19T08:09:26.289Z,996.28
2023-01-19T08:10:26.446Z,996.32
2023-01-19T08:11:26.617Z,996.32
2023-01-19T08:12:26.794Z,996.37
2023-01-19T08:13:26.961Z,996.38
2023-01-19T08:14:27.069Z,996.36
2023-01-19T08:15:27.248Z,996.38
2023-01-19T08:16:27.351Z,996.52
2023-01-19T08:17:27.599Z,996.45
2023-01-19T08:18:27.641Z,996.45
2023-01-19T08:19:29.168Z,996.47
2023-01-19T08:20:27.915Z,996.51
2023-01-19T08:21:27.992Z,996.46
2023-01-19T08:22:28.140Z,996.62
2023-01-19T08:23:28.316Z,996.57
2023-01-19T08:24:28.469Z,996.59
2023-01-19T08:25:28.638Z,996.68
2023-01-19T08:26:28.779Z,996.64
2023-01-19T08:27:28.937Z,996.71
2023-01-19T08:28:29.104Z,996.70
2023-01-19T08:29:29.280Z,996.73
2023-01-19T08:30:29.345Z,996.81
2023-01-19T08:31:29.584Z,996.86
2023-01-19T08:32:29.750Z,996.81
2023-01-19T08:33:29.760Z,996.80
2023-01-19T08:34:29.926Z,996.77
2023-01-19T08:35:30.078Z,996.89
2023-01-19T08:36:30.268Z,996.80
2023-01-19T08:37:30.368Z,996.83
2023-01-19T08:38:30.514Z,996.80
2023-01-19T08:39:30.710Z,996.88
2023-01-19T08:40:30.871Z,996.86
2023-01-19T08:41:31.039Z,996.86
2023-01-19T08:42:31.195Z,996.89
2023-01-19T08:43:31.377Z,996.96
2023-01-19T08:44:31.465Z,996.95
2023-01-19T08:45:31.642Z,996.99
2023-01-19T08:46:31.832Z,997.04
2023-01-19T08:47:32.012Z,997.01
2023-01-19T08:48:32.127Z,997.05
2023-01-19T08:49:32.295Z,997.11
2023-01-19T08:50:32.462Z,997.07
2023-01-19T08:51:32.625Z,997.09
2023-01-19T08:52:32.811Z,997.12
2023-01-19T08:53:32.898Z,997.17
2023-01-19T08:54:33.085Z,997.16
2023-01-19T08:55:33.255Z,997.16
2023-01-19T08:56:33.323Z,997.13
2023-01-19T08:57:33.481Z,997.13
2023-01-19T08:58:33.683Z,997.15
2023-01-19T08:59:33.743Z,997.18
2023-01-19T09:00:33.915Z,997.15
2023-01-19T09:01:34.183Z,997.21
2023-01-19T09:02:34.352Z,997.22
2023-01-19T09:03:34.334Z,997.17
2023-01-19T09:04:34.438Z,997.18
2023-01-19T09:05:34.577Z,997.23
2023-01-19T09:06:34.668Z,997.22
2023-01-19T09:07:35.729Z,997.24
2023-01-19T09:08:34.891Z,997.22
2023-01-19T09:09:35.020Z,997.27
2023-01-19T09:10:35.196Z,997.28
2023-01-19T09:11:35.289Z,997.25
2023-01-19T09:12:35.423Z,997.27
2023-01-19T09:13:35.561Z,997.24
2023-01-19T09:14:35.683Z,997.25
2023-01-19T09:15:35.841Z,997.33
2023-01-19T09:16:35.981Z,997.33
2023-01-19T09:17:36.117Z,997.38
2023-01-19T09:18:36.242Z,997.35
2023-01-19T09:19:36.386Z,997.42
2023-01-19T09:20:36.529Z,997.41
2023-01-19T09:21:36.694Z,997.39
2023-01-19T09:22:37.799Z,997.53
2023-01-19T09:23:37.041Z,997.41
2023-01-19T09:24:37.131Z,997.51
2023-01-19T09:25:37.310Z,997.47
2023-01-19T09:26:37.421Z,997.50
2023-01-19T09:27:37.574Z,997.44
2023-01-19T09:28:37.731Z,997.57
2023-01-19T09:29:37.840Z,997.56
2023-01-19T09:30:38.010Z,997.47
2023-01-19T09:31:38.280Z,997.52
2023-01-19T09:32:38.344Z,997.58
2023-01-19T09:33:38.490Z,997.53
2023-01-19T09:34:38.617Z,997.53
2023-01-19T09:35:38.756Z,997.56
2023-01-19T09:36:38.872Z,997.60
2023-01-19T09:37:39.059Z,997.55
2023-01-19T09:38:39.206Z,997.58
2023-01-19T09:39:39.592Z,997.51
2023-01-19T09:40:41.371Z,997.53
2023-01-19T09:41:39.868Z,997.54
2023-01-19T09:42:39.938Z,997.53
2023-01-19T09:43:40.003Z,997.65
2023-01-19T09:44:40.092Z,997.66
2023-01-19T09:45:40.272Z,997.64
2023-01-19T09:46:40.472Z,997.59
2023-01-19T09:47:40.603Z,997.64
2023-01-19T09:48:40.726Z,997.76
2023-01-19T09:49:40.824Z,997.72
2023-01-19T09:50:42.481Z,997.70
2023-01-19T09:51:41.108Z,997.75
2023-01-19T09:52:41.415Z,997.85
2023-01-19T09:53:41.437Z,997.75
2023-01-19T09:54:41.483Z,997.80
2023-01-19T09:55:41.683Z,997.76
2023-01-19T09:56:41.858Z,997.83
2023-01-19T09:57:41.985Z,997.77
2023-01-19T09:58:42.088Z,997.83
2023-01-19T09:59:42.269Z,997.88
2023-01-19T10:00:42.407Z,997.90
2023-01-19T10:01:42.548Z,997.87
2023-01-19T10:02:42.696Z,997.89
2023-01-19T10:03:42.785Z,997.89
2023-01-19T10:04:42.896Z,997.92
2023-01-19T10:05:43.067Z,997.97
2023-01-19T10:06:43.176Z,997.92
2023-01-19T10:07:43.372Z,997.97
2023-01-19T10:08:43.482Z,998.08
2023-01-19T10:09:43.632Z,998.03
2023-01-19T10:10:43.763Z,998.06
2023-01-19T10:11:52.609Z,998.04
2023-01-19T10:12:45.088Z,998.06
2023-01-19T10:13:44.824Z,998.11
2023-01-19T10:14:44.284Z,998.11
2023-01-19T10:15:44.513Z,998.11
2023-01-19T10:16:44.622Z,998.16
2023-01-19T10:17:44.671Z,998.12
2023-01-19T10:18:44.784Z,998.17
2023-01-19T10:19:46.632Z,998.20
2023-01-19T10:20:45.088Z,998.23
2023-01-19T10:21:45.239Z,998.17
2023-01-19T10:22:45.405Z,998.18
2023-01-19T10:23:45.564Z,998.21
2023-01-19T10:24:45.712Z,998.21
2023-01-19T10:25:45.885Z,998.23
2023-01-19T10:26:46.000Z,998.24
2023-01-19T10:27:46.148Z,998.25
2023-01-19T10:28:46.282Z,998.22
2023-01-19T10:29:46.441Z,998.22
2023-01-19T10:30:46.518Z,998.26
2023-01-19T10:31:46.695Z,998.20
2023-01-19T10:32:46.791Z,998.30
2023-01-19T10:33:46.858Z,998.23
2023-01-19T10:34:47.055Z,998.35
2023-01-19T10:35:47.274Z,998.27
2023-01-19T10:36:47.313Z,998.28
2023-01-19T10:37:47.417Z,998.33
2023-01-19T10:38:47.555Z,998.31
2023-01-19T10:39:47.721Z,998.28
2023-01-19T10:40:47.835Z,998.28
2023-01-19T10:41:47.999Z,998.26
2023-01-19T10:42:48.211Z,998.33
2023-01-19T10:43:48.308Z,998.30
2023-01-19T10:44:48.483Z,998.35
2023-01-19T10:45:48.663Z,998.34
2023-01-19T10:46:48.711Z,998.33
2023-01-19T10:47:48.919Z,998.28
2023-01-19T10:48:49.004Z,998.30
2023-01-19T10:49:49.141Z,998.36
2023-01-19T10:50:49.356Z,998.40
2023-01-19T10:51:49.428Z,998.38
2023-01-19T10:52:49.559Z,998.38
2023-01-19T10:53:49.708Z,998.35
2023-01-19T10:54:49.857Z,998.34
2023-01-19T10:55:49.984Z,998.32
2023-01-19T10:56:50.128Z,998.37
2023-01-19T10:57:50.261Z,998.32
2023-01-19T10:58:50.396Z,998.30
2023-01-19T10:59:50.582Z,998.29
2023-01-19T11:00:50.754Z,998.39
2023-01-19T11:01:50.861Z,998.27
2023-01-19T11:02:51.013Z,998.29
2023-01-19T11:03:51.074Z,998.27
2023-01-19T11:04:51.246Z,998.21
2023-01-19T11:05:51.287Z,998.28
2023-01-19T11:06:51.445Z,998.32
2023-01-19T11:07:51.575Z,998.29
2023-01-19T11:08:51.756Z,998.30
2023-01-19T11:09:51.832Z,998.30
2023-01-19T11:10:51.993Z,998.37
2023-01-19T11:11:52.127Z,998.39
2023-01-19T11:12:52.283Z,998.34
2023-01-19T11:13:52.425Z,998.33
2023-01-19T11:14:52.600Z,998.33
2023-01-19T11:15:52.762Z,998.41
2023-01-19T11:16:52.856Z,998.38
2023-01-19T11:17:52.993Z,998.39
2023-01-19T11:18:53.123Z,998.40
2023-01-19T11:19:53.255Z,998.38
2023-01-19T11:20:53.437Z,998.37
2023-01-19T11:21:53.684Z,998.42
2023-01-19T11:22:53.658Z,998.42
2023-01-19T11:23:53.807Z,998.42
2023-01-19T11:24:54.008Z,998.40
2023-01-19T11:25:54.117Z,998.40
2023-01-19T11:26:54.179Z,998.35
2023-01-19T11:27:54.314Z,998.46
2023-01-19T11:28:54.493Z,998.51
2023-01-19T11:29:54.637Z,998.49
2023-01-19T11:30:54.812Z,998.47
2023-01-19T11:31:54.939Z,998.50
2023-01-19T11:32:55.049Z,998.53
2023-01-19T11:33:55.212Z,998.54
2023-01-19T11:34:55.339Z,998.50
2023-01-19T11:35:55.491Z,998.49
2023-01-19T11:36:55.676Z,998.53
2023-01-19T11:37:55.762Z,998.51
2023-01-19T11:38:55.873Z,998.52
2023-01-19T11:39:56.028Z,998.50
2023-01-19T11:40:56.157Z,998.55
2023-01-19T11:41:56.361Z,998.44
2023-01-19T11:42:56.458Z,998.43
2023-01-19T11:43:56.574Z,998.50
2023-01-19T11:44:56.652Z,998.49
2023-01-19T11:45:56.882Z,998.41
2023-01-19T11:46:56.952Z,998.36
2023-01-19T11:47:57.131Z,998.37
2023-01-19T11:48:57.232Z,998.36
2023-01-19T11:49:57.403Z,998.43
2023-01-19T11:50:57.563Z,998.38
2023-01-19T11:51:57.709Z,998.31
2023-01-19T11:52:57.803Z,998.32
2023-01-19T11:54:09.097Z,998.42
2023-01-19T11:54:58.050Z,998.39
2023-01-19T11:55:58.203Z,998.42
2023-01-19T11:56:58.305Z,998.36
2023-01-19T11:57:58.452Z,998.44
2023-01-19T11:58:58.622Z,998.45
2023-01-19T11:59:58.783Z,998.47
2023-01-19T12:00:58.924Z,998.47
2023-01-19T12:01:59.075Z,998.55
2023-01-19T12:02:59.125Z,998.44
2023-01-19T12:03:59.254Z,998.52
2023-01-19T12:04:59.405Z,998.49
2023-01-19T12:05:59.495Z,998.50
2023-01-19T12:06:59.591Z,998.51
2023-01-19T12:08:01.001Z,998.48
2023-01-19T12:08:59.834Z,998.43
2023-01-19T12:09:59.974Z,998.45
2023-01-19T12:11:00.115Z,998.51
2023-01-19T12:12:00.205Z,998.49
2023-01-19T12:13:01.790Z,998.47
2023-01-19T12:14:00.502Z,998.38
2023-01-19T12:15:00.637Z,998.48
2023-01-19T12:16:00.772Z,998.43
2023-01-19T12:17:00.878Z,998.45
2023-01-19T12:18:01.435Z,998.45
2023-01-19T12:19:01.185Z,998.50
2023-01-19T12:20:01.367Z,998.46
2023-01-19T12:21:03.982Z,998.41
2023-01-19T12:22:01.597Z,998.37
2023-01-19T12:23:01.671Z,998.47
2023-01-19T12:24:01.892Z,998.48
2023-01-19T12:25:01.950Z,998.43
2023-01-19T12:26:02.078Z,998.39
2023-01-19T12:27:02.235Z,998.35
2023-01-19T12:28:02.381Z,998.42
2023-01-19T12:29:02.551Z,998.41
2023-01-19T12:30:02.725Z,998.36